sensor_id;sensor_type;location;lat;lon;timestamp;P1;durP1;ratioP1;P2;durP2;ratioP2
42834;SDS011;29335;50.526;30.458;2022-07-29T00:02:11;9.20;;;4.93;;
42834;SDS011;29335;50.526;30.458;2022-07-29T00:04:37;7.40;;;4.05;;
42834;SDS011;29335;50.526;30.458;2022-07-29T00:07:03;6.97;;;3.90;;
42834;SDS011;29335;50.526;30.458;2022-07-29T00:09:30;5.28;;;3.53;;
42834;SDS011;29335;50.526;30.458;2022-07-29T00:11:57;7.15;;;3.78;;
42834;SDS011;29335;50.526;30.458;2022-07-29T00:14:25;5.63;;;3.55;;
42834;SDS011;29335;50.526;30.458;2022-07-29T00:16:51;7.40;;;3.72;;
42834;SDS011;29335;50.526;30.458;2022-07-29T00:19:17;4.60;;;3.10;;
42834;SDS011;29335;50.526;30.458;2022-07-29T00:21:42;6.55;;;3.10;;
42834;SDS011;29335;50.526;30.458;2022-07-29T00:24:08;8.10;;;3.50;;
42834;SDS011;29335;50.526;30.458;2022-07-29T00:26:34;7.32;;;3.50;;
42834;SDS011;29335;50.526;30.458;2022-07-29T00:29:02;8.48;;;3.15;;
42834;SDS011;29335;50.526;30.458;2022-07-29T00:31:29;7.88;;;4.00;;
42834;SDS011;29335;50.526;30.458;2022-07-29T00:33:55;9.32;;;3.63;;
42834;SDS011;29335;50.526;30.458;2022-07-29T00:36:21;6.72;;;3.30;;
42834;SDS011;29335;50.526;30.458;2022-07-29T00:38:47;6.57;;;3.45;;
42834;SDS011;29335;50.526;30.458;2022-07-29T00:41:13;7.57;;;3.55;;
42834;SDS011;29335;50.526;30.458;2022-07-29T00:43:39;6.90;;;3.33;;
42834;SDS011;29335;50.526;30.458;2022-07-29T00:46:05;5.60;;;3.20;;
42834;SDS011;29335;50.526;30.458;2022-07-29T00:48:31;6.10;;;3.38;;
42834;SDS011;29335;50.526;30.458;2022-07-29T00:50:57;6.18;;;2.97;;
42834;SDS011;29335;50.526;30.458;2022-07-29T00:53:24;6.03;;;3.30;;
42834;SDS011;29335;50.526;30.458;2022-07-29T00:55:50;5.38;;;3.17;;
42834;SDS011;29335;50.526;30.458;2022-07-29T00:58:18;8.65;;;3.47;;
42834;SDS011;29335;50.526;30.458;2022-07-29T01:00:44;8.30;;;3.40;;
42834;SDS011;29335;50.526;30.458;2022-07-29T01:03:09;6.28;;;3.08;;
42834;SDS011;29335;50.526;30.458;2022-07-29T01:05:35;8.82;;;3.42;;
42834;SDS011;29335;50.526;30.458;2022-07-29T01:08:01;6.20;;;3.13;;
42834;SDS011;29335;50.526;30.458;2022-07-29T01:10:27;6.70;;;3.17;;
42834;SDS011;29335;50.526;30.458;2022-07-29T01:12:54;4.43;;;2.80;;
42834;SDS011;29335;50.526;30.458;2022-07-29T01:15:24;5.97;;;2.95;;
42834;SDS011;29335;50.526;30.458;2022-07-29T01:31:42;5.50;;;2.53;;
42834;SDS011;29335;50.526;30.458;2022-07-29T01:37:15;5.90;;;2.83;;
42834;SDS011;29335;50.526;30.458;2022-07-29T01:39:45;4.85;;;2.30;;
42834;SDS011;29335;50.526;30.458;2022-07-29T01:48:02;4.05;;;2.22;;
42834;SDS011;29335;50.526;30.458;2022-07-29T01:50:30;4.95;;;2.75;;
42834;SDS011;29335;50.526;30.458;2022-07-29T01:53:04;5.65;;;2.70;;
42834;SDS011;29335;50.526;30.458;2022-07-29T01:55:34;3.80;;;2.10;;
42834;SDS011;29335;50.526;30.458;2022-07-29T01:58:03;4.18;;;2.40;;
42834;SDS011;29335;50.526;30.458;2022-07-29T02:00:31;5.05;;;2.40;;
42834;SDS011;29335;50.526;30.458;2022-07-29T02:02:58;3.88;;;2.25;;
42834;SDS011;29335;50.526;30.458;2022-07-29T02:05:27;5.50;;;2.60;;
42834;SDS011;29335;50.526;30.458;2022-07-29T02:07:55;5.13;;;2.47;;
42834;SDS011;29335;50.526;30.458;2022-07-29T02:10:24;6.35;;;2.55;;
42834;SDS011;29335;50.526;30.458;2022-07-29T02:12:52;6.80;;;2.65;;
42834;SDS011;29335;50.526;30.458;2022-07-29T02:15:20;7.45;;;2.70;;
42834;SDS011;29335;50.526;30.458;2022-07-29T02:17:50;4.57;;;2.70;;
42834;SDS011;29335;50.526;30.458;2022-07-29T02:20:19;5.22;;;2.95;;
42834;SDS011;29335;50.526;30.458;2022-07-29T02:22:50;4.45;;;3.08;;
42834;SDS011;29335;50.526;30.458;2022-07-29T02:25:18;7.20;;;4.13;;
42834;SDS011;29335;50.526;30.458;2022-07-29T02:27:45;6.72;;;2.80;;
42834;SDS011;29335;50.526;30.458;2022-07-29T02:30:13;10.48;;;3.00;;
42834;SDS011;29335;50.526;30.458;2022-07-29T02:32:40;6.07;;;2.85;;
42834;SDS011;29335;50.526;30.458;2022-07-29T02:35:08;5.72;;;2.80;;
42834;SDS011;29335;50.526;30.458;2022-07-29T02:37:35;5.00;;;2.53;;
42834;SDS011;29335;50.526;30.458;2022-07-29T02:40:02;7.15;;;2.67;;
42834;SDS011;29335;50.526;30.458;2022-07-29T02:42:29;5.60;;;2.63;;
42834;SDS011;29335;50.526;30.458;2022-07-29T02:44:57;4.50;;;3.20;;
42834;SDS011;29335;50.526;30.458;2022-07-29T02:50:27;7.13;;;3.10;;
42834;SDS011;29335;50.526;30.458;2022-07-29T02:53:02;3.92;;;2.38;;
42834;SDS011;29335;50.526;30.458;2022-07-29T02:58:21;6.97;;;3.08;;
42834;SDS011;29335;50.526;30.458;2022-07-29T03:00:55;7.97;;;3.00;;
42834;SDS011;29335;50.526;30.458;2022-07-29T03:03:24;5.25;;;2.90;;
42834;SDS011;29335;50.526;30.458;2022-07-29T03:05:56;5.60;;;2.95;;
42834;SDS011;29335;50.526;30.458;2022-07-29T03:08:24;3.97;;;2.60;;
42834;SDS011;29335;50.526;30.458;2022-07-29T03:10:52;4.40;;;2.58;;
42834;SDS011;29335;50.526;30.458;2022-07-29T03:13:18;5.75;;;2.75;;
42834;SDS011;29335;50.526;30.458;2022-07-29T03:15:45;5.70;;;3.13;;
42834;SDS011;29335;50.526;30.458;2022-07-29T03:18:11;12.43;;;2.90;;
42834;SDS011;29335;50.526;30.458;2022-07-29T03:20:37;5.22;;;2.70;;
42834;SDS011;29335;50.526;30.458;2022-07-29T03:23:04;5.63;;;2.63;;
42834;SDS011;29335;50.526;30.458;2022-07-29T03:25:29;5.82;;;2.50;;
42834;SDS011;29335;50.526;30.458;2022-07-29T03:27:56;6.85;;;2.90;;
42834;SDS011;29335;50.526;30.458;2022-07-29T03:30:22;4.85;;;2.85;;
42834;SDS011;29335;50.526;30.458;2022-07-29T03:32:48;3.35;;;2.35;;
42834;SDS011;29335;50.526;30.458;2022-07-29T03:35:15;6.22;;;2.72;;
42834;SDS011;29335;50.526;30.458;2022-07-29T03:37:44;6.57;;;2.70;;
42834;SDS011;29335;50.526;30.458;2022-07-29T03:40:11;4.57;;;2.15;;
42834;SDS011;29335;50.526;30.458;2022-07-29T03:42:40;5.05;;;2.22;;
42834;SDS011;29335;50.526;30.458;2022-07-29T03:45:10;3.33;;;2.20;;
42834;SDS011;29335;50.526;30.458;2022-07-29T03:47:39;4.30;;;2.30;;
42834;SDS011;29335;50.526;30.458;2022-07-29T03:50:10;6.22;;;2.47;;
42834;SDS011;29335;50.526;30.458;2022-07-29T03:52:39;4.78;;;2.35;;
42834;SDS011;29335;50.526;30.458;2022-07-29T03:55:05;6.78;;;2.47;;
42834;SDS011;29335;50.526;30.458;2022-07-29T03:57:31;5.40;;;2.50;;
42834;SDS011;29335;50.526;30.458;2022-07-29T03:59:58;7.68;;;2.65;;
42834;SDS011;29335;50.526;30.458;2022-07-29T04:02:26;6.03;;;2.83;;
42834;SDS011;29335;50.526;30.458;2022-07-29T04:04:52;4.35;;;2.88;;
42834;SDS011;29335;50.526;30.458;2022-07-29T04:07:18;6.05;;;2.55;;
42834;SDS011;29335;50.526;30.458;2022-07-29T04:09:43;7.03;;;3.08;;
42834;SDS011;29335;50.526;30.458;2022-07-29T04:12:09;4.28;;;2.40;;
42834;SDS011;29335;50.526;30.458;2022-07-29T04:14:35;5.78;;;2.72;;
42834;SDS011;29335;50.526;30.458;2022-07-29T04:17:01;4.95;;;2.70;;
42834;SDS011;29335;50.526;30.458;2022-07-29T04:19:27;4.32;;;2.70;;
42834;SDS011;29335;50.526;30.458;2022-07-29T04:21:53;7.53;;;2.40;;
42834;SDS011;29335;50.526;30.458;2022-07-29T04:24:19;3.85;;;2.60;;
42834;SDS011;29335;50.526;30.458;2022-07-29T04:26:45;6.63;;;3.35;;
42834;SDS011;29335;50.526;30.458;2022-07-29T04:29:11;6.72;;;4.15;;
42834;SDS011;29335;50.526;30.458;2022-07-29T04:31:38;6.40;;;2.97;;
42834;SDS011;29335;50.526;30.458;2022-07-29T04:34:04;5.80;;;2.75;;
42834;SDS011;29335;50.526;30.458;2022-07-29T04:36:30;4.72;;;2.88;;
42834;SDS011;29335;50.526;30.458;2022-07-29T04:38:56;6.20;;;3.35;;
42834;SDS011;29335;50.526;30.458;2022-07-29T04:41:21;5.93;;;2.88;;
42834;SDS011;29335;50.526;30.458;2022-07-29T04:43:47;8.07;;;3.13;;
42834;SDS011;29335;50.526;30.458;2022-07-29T04:46:13;7.97;;;4.43;;
42834;SDS011;29335;50.526;30.458;2022-07-29T04:48:38;8.25;;;3.80;;
42834;SDS011;29335;50.526;30.458;2022-07-29T04:51:04;8.10;;;3.50;;
42834;SDS011;29335;50.526;30.458;2022-07-29T04:53:29;5.35;;;3.45;;
42834;SDS011;29335;50.526;30.458;2022-07-29T04:55:55;7.40;;;3.60;;
42834;SDS011;29335;50.526;30.458;2022-07-29T04:58:20;6.40;;;3.15;;
42834;SDS011;29335;50.526;30.458;2022-07-29T05:00:48;6.88;;;2.97;;
42834;SDS011;29335;50.526;30.458;2022-07-29T05:03:14;7.47;;;3.20;;
42834;SDS011;29335;50.526;30.458;2022-07-29T05:05:40;5.78;;;2.80;;
42834;SDS011;29335;50.526;30.458;2022-07-29T05:08:06;6.18;;;3.03;;
42834;SDS011;29335;50.526;30.458;2022-07-29T05:10:31;9.55;;;2.85;;
42834;SDS011;29335;50.526;30.458;2022-07-29T05:12:58;5.88;;;2.80;;
42834;SDS011;29335;50.526;30.458;2022-07-29T05:15:24;6.05;;;3.00;;
42834;SDS011;29335;50.526;30.458;2022-07-29T05:17:50;6.07;;;3.00;;
42834;SDS011;29335;50.526;30.458;2022-07-29T05:20:15;12.82;;;3.67;;
42834;SDS011;29335;50.526;30.458;2022-07-29T05:22:41;5.05;;;2.97;;
42834;SDS011;29335;50.526;30.458;2022-07-29T05:25:07;6.35;;;2.85;;
42834;SDS011;29335;50.526;30.458;2022-07-29T05:27:34;7.15;;;3.40;;
42834;SDS011;29335;50.526;30.458;2022-07-29T05:30:00;11.43;;;3.85;;
42834;SDS011;29335;50.526;30.458;2022-07-29T05:32:26;10.60;;;3.53;;
42834;SDS011;29335;50.526;30.458;2022-07-29T05:34:51;9.00;;;3.17;;
42834;SDS011;29335;50.526;30.458;2022-07-29T05:37:20;11.13;;;3.22;;
42834;SDS011;29335;50.526;30.458;2022-07-29T05:39:46;6.95;;;2.90;;
42834;SDS011;29335;50.526;30.458;2022-07-29T05:42:11;8.82;;;3.53;;
42834;SDS011;29335;50.526;30.458;2022-07-29T05:44:37;9.18;;;3.25;;
42834;SDS011;29335;50.526;30.458;2022-07-29T05:47:04;10.35;;;2.95;;
42834;SDS011;29335;50.526;30.458;2022-07-29T05:49:30;8.70;;;2.70;;
42834;SDS011;29335;50.526;30.458;2022-07-29T05:51:56;8.07;;;2.28;;
42834;SDS011;29335;50.526;30.458;2022-07-29T05:54:21;3.17;;;1.58;;
42834;SDS011;29335;50.526;30.458;2022-07-29T05:56:47;2.97;;;1.70;;
42834;SDS011;29335;50.526;30.458;2022-07-29T05:59:12;7.75;;;2.25;;
42834;SDS011;29335;50.526;30.458;2022-07-29T06:01:38;5.90;;;2.10;;
42834;SDS011;29335;50.526;30.458;2022-07-29T06:04:05;4.00;;;1.55;;
42834;SDS011;29335;50.526;30.458;2022-07-29T06:06:31;5.63;;;1.92;;
42834;SDS011;29335;50.526;30.458;2022-07-29T06:08:58;6.97;;;1.90;;
42834;SDS011;29335;50.526;30.458;2022-07-29T06:11:24;3.78;;;1.70;;
42834;SDS011;29335;50.526;30.458;2022-07-29T06:13:49;5.63;;;2.20;;
42834;SDS011;29335;50.526;30.458;2022-07-29T06:16:15;4.25;;;1.90;;
42834;SDS011;29335;50.526;30.458;2022-07-29T06:18:41;5.45;;;2.00;;
42834;SDS011;29335;50.526;30.458;2022-07-29T06:21:09;6.32;;;1.90;;
42834;SDS011;29335;50.526;30.458;2022-07-29T06:23:36;4.75;;;1.92;;
42834;SDS011;29335;50.526;30.458;2022-07-29T06:26:02;5.90;;;2.15;;
42834;SDS011;29335;50.526;30.458;2022-07-29T06:28:28;8.77;;;1.60;;
42834;SDS011;29335;50.526;30.458;2022-07-29T06:30:54;5.25;;;1.98;;
42834;SDS011;29335;50.526;30.458;2022-07-29T06:33:19;7.05;;;2.05;;
42834;SDS011;29335;50.526;30.458;2022-07-29T06:35:45;5.07;;;1.80;;
42834;SDS011;29335;50.526;30.458;2022-07-29T06:38:12;8.73;;;2.17;;
42834;SDS011;29335;50.526;30.458;2022-07-29T06:40:42;5.35;;;1.85;;
42834;SDS011;29335;50.526;30.458;2022-07-29T06:43:28;9.30;;;2.20;;
42834;SDS011;29335;50.526;30.458;2022-07-29T06:46:00;4.47;;;1.92;;
42834;SDS011;29335;50.526;30.458;2022-07-29T06:48:27;8.80;;;1.85;;
42834;SDS011;29335;50.526;30.458;2022-07-29T06:50:53;5.47;;;1.88;;
42834;SDS011;29335;50.526;30.458;2022-07-29T06:53:19;3.72;;;1.60;;
42834;SDS011;29335;50.526;30.458;2022-07-29T06:55:45;6.80;;;2.35;;
42834;SDS011;29335;50.526;30.458;2022-07-29T06:58:11;5.82;;;2.10;;
42834;SDS011;29335;50.526;30.458;2022-07-29T07:00:36;6.15;;;2.20;;
42834;SDS011;29335;50.526;30.458;2022-07-29T07:03:02;5.25;;;1.88;;
42834;SDS011;29335;50.526;30.458;2022-07-29T07:05:28;5.50;;;1.92;;
42834;SDS011;29335;50.526;30.458;2022-07-29T07:07:54;6.38;;;2.28;;
42834;SDS011;29335;50.526;30.458;2022-07-29T07:10:19;4.75;;;1.80;;
42834;SDS011;29335;50.526;30.458;2022-07-29T07:12:45;6.05;;;2.05;;
42834;SDS011;29335;50.526;30.458;2022-07-29T07:15:10;5.95;;;2.20;;
42834;SDS011;29335;50.526;30.458;2022-07-29T07:17:36;4.18;;;2.20;;
42834;SDS011;29335;50.526;30.458;2022-07-29T07:20:03;5.53;;;2.50;;
42834;SDS011;29335;50.526;30.458;2022-07-29T07:22:30;6.57;;;2.50;;
42834;SDS011;29335;50.526;30.458;2022-07-29T07:24:55;5.07;;;2.50;;
42834;SDS011;29335;50.526;30.458;2022-07-29T07:27:21;5.13;;;2.58;;
42834;SDS011;29335;50.526;30.458;2022-07-29T07:29:46;7.70;;;2.10;;
42834;SDS011;29335;50.526;30.458;2022-07-29T07:32:12;4.28;;;2.00;;
42834;SDS011;29335;50.526;30.458;2022-07-29T07:34:39;5.50;;;2.22;;
42834;SDS011;29335;50.526;30.458;2022-07-29T07:37:05;4.50;;;2.13;;
42834;SDS011;29335;50.526;30.458;2022-07-29T07:39:30;5.05;;;2.00;;
42834;SDS011;29335;50.526;30.458;2022-07-29T07:41:56;4.28;;;2.00;;
42834;SDS011;29335;50.526;30.458;2022-07-29T07:44:21;4.15;;;1.90;;
42834;SDS011;29335;50.526;30.458;2022-07-29T07:46:47;6.32;;;2.20;;
42834;SDS011;29335;50.526;30.458;2022-07-29T07:49:13;6.95;;;2.05;;
42834;SDS011;29335;50.526;30.458;2022-07-29T07:51:38;5.40;;;2.10;;
42834;SDS011;29335;50.526;30.458;2022-07-29T07:54:04;5.03;;;1.95;;
42834;SDS011;29335;50.526;30.458;2022-07-29T07:56:29;6.68;;;2.15;;
42834;SDS011;29335;50.526;30.458;2022-07-29T07:58:55;4.88;;;2.15;;
42834;SDS011;29335;50.526;30.458;2022-07-29T08:01:21;5.60;;;2.17;;
42834;SDS011;29335;50.526;30.458;2022-07-29T08:03:48;6.00;;;2.30;;
42834;SDS011;29335;50.526;30.458;2022-07-29T08:06:14;5.45;;;2.10;;
42834;SDS011;29335;50.526;30.458;2022-07-29T08:08:40;5.88;;;2.05;;
42834;SDS011;29335;50.526;30.458;2022-07-29T08:11:06;5.40;;;2.50;;
42834;SDS011;29335;50.526;30.458;2022-07-29T08:13:31;5.32;;;2.20;;
42834;SDS011;29335;50.526;30.458;2022-07-29T08:15:58;7.22;;;2.65;;
42834;SDS011;29335;50.526;30.458;2022-07-29T08:18:35;8.77;;;2.40;;
42834;SDS011;29335;50.526;30.458;2022-07-29T08:21:02;6.90;;;2.50;;
42834;SDS011;29335;50.526;30.458;2022-07-29T08:23:28;7.78;;;2.60;;
42834;SDS011;29335;50.526;30.458;2022-07-29T08:26:03;5.65;;;2.55;;
42834;SDS011;29335;50.526;30.458;2022-07-29T08:28:39;5.65;;;2.22;;
42834;SDS011;29335;50.526;30.458;2022-07-29T08:33:32;8.23;;;2.35;;
42834;SDS011;29335;50.526;30.458;2022-07-29T08:35:58;5.68;;;2.40;;
42834;SDS011;29335;50.526;30.458;2022-07-29T08:38:24;6.38;;;2.22;;
42834;SDS011;29335;50.526;30.458;2022-07-29T08:40:51;5.53;;;2.38;;
42834;SDS011;29335;50.526;30.458;2022-07-29T08:43:17;4.47;;;2.25;;
42834;SDS011;29335;50.526;30.458;2022-07-29T08:45:48;6.97;;;2.05;;
42834;SDS011;29335;50.526;30.458;2022-07-29T08:48:19;6.22;;;2.05;;
42834;SDS011;29335;50.526;30.458;2022-07-29T08:53:14;5.90;;;2.10;;
42834;SDS011;29335;50.526;30.458;2022-07-29T08:55:42;3.92;;;2.20;;
42834;SDS011;29335;50.526;30.458;2022-07-29T08:58:09;6.38;;;2.30;;
42834;SDS011;29335;50.526;30.458;2022-07-29T09:00:36;5.35;;;2.53;;
42834;SDS011;29335;50.526;30.458;2022-07-29T09:03:06;4.50;;;2.25;;
42834;SDS011;29335;50.526;30.458;2022-07-29T09:05:33;3.90;;;2.38;;
42834;SDS011;29335;50.526;30.458;2022-07-29T09:07:59;6.32;;;2.70;;
42834;SDS011;29335;50.526;30.458;2022-07-29T09:10:26;6.95;;;2.17;;
42834;SDS011;29335;50.526;30.458;2022-07-29T09:12:53;6.43;;;2.55;;
42834;SDS011;29335;50.526;30.458;2022-07-29T09:15:20;6.32;;;2.10;;
42834;SDS011;29335;50.526;30.458;2022-07-29T09:17:47;5.25;;;2.13;;
42834;SDS011;29335;50.526;30.458;2022-07-29T09:22:43;5.38;;;2.50;;
42834;SDS011;29335;50.526;30.458;2022-07-29T09:25:13;6.85;;;2.67;;
42834;SDS011;29335;50.526;30.458;2022-07-29T09:27:39;8.52;;;2.47;;
42834;SDS011;29335;50.526;30.458;2022-07-29T09:30:08;5.68;;;2.60;;
42834;SDS011;29335;50.526;30.458;2022-07-29T09:32:56;8.83;;;3.13;;
42834;SDS011;29335;50.526;30.458;2022-07-29T09:35:22;4.90;;;2.10;;
42834;SDS011;29335;50.526;30.458;2022-07-29T09:37:49;6.28;;;2.50;;
42834;SDS011;29335;50.526;30.458;2022-07-29T09:40:26;6.65;;;2.70;;
42834;SDS011;29335;50.526;30.458;2022-07-29T09:42:53;8.18;;;2.60;;
42834;SDS011;29335;50.526;30.458;2022-07-29T09:45:26;6.15;;;3.00;;
42834;SDS011;29335;50.526;30.458;2022-07-29T09:47:56;4.90;;;2.38;;
42834;SDS011;29335;50.526;30.458;2022-07-29T09:50:41;7.05;;;3.25;;
42834;SDS011;29335;50.526;30.458;2022-07-29T09:53:08;4.25;;;2.22;;
42834;SDS011;29335;50.526;30.458;2022-07-29T09:55:48;8.65;;;2.55;;
42834;SDS011;29335;50.526;30.458;2022-07-29T09:58:18;7.90;;;2.22;;
42834;SDS011;29335;50.526;30.458;2022-07-29T10:00:46;3.85;;;2.22;;
42834;SDS011;29335;50.526;30.458;2022-07-29T10:03:13;6.88;;;2.45;;
42834;SDS011;29335;50.526;30.458;2022-07-29T10:05:38;9.63;;;2.53;;
42834;SDS011;29335;50.526;30.458;2022-07-29T10:08:05;6.00;;;2.80;;
42834;SDS011;29335;50.526;30.458;2022-07-29T10:10:33;8.75;;;2.60;;
42834;SDS011;29335;50.526;30.458;2022-07-29T10:13:02;9.00;;;2.72;;
42834;SDS011;29335;50.526;30.458;2022-07-29T10:15:34;5.65;;;2.72;;
42834;SDS011;29335;50.526;30.458;2022-07-29T10:18:03;4.70;;;2.40;;
42834;SDS011;29335;50.526;30.458;2022-07-29T10:20:29;5.15;;;2.67;;
42834;SDS011;29335;50.526;30.458;2022-07-29T10:22:55;9.68;;;2.60;;
42834;SDS011;29335;50.526;30.458;2022-07-29T10:25:21;6.10;;;2.85;;
42834;SDS011;29335;50.526;30.458;2022-07-29T10:27:48;4.90;;;2.33;;
42834;SDS011;29335;50.526;30.458;2022-07-29T10:30:16;7.20;;;2.88;;
42834;SDS011;29335;50.526;30.458;2022-07-29T10:36:07;3.00;;;2.10;;
42834;SDS011;29335;50.526;30.458;2022-07-29T10:38:45;3.00;;;1.90;;
42834;SDS011;29335;50.526;30.458;2022-07-29T10:43:54;5.20;;;2.45;;
42834;SDS011;29335;50.526;30.458;2022-07-29T10:46:23;5.72;;;2.47;;
42834;SDS011;29335;50.526;30.458;2022-07-29T10:49:05;4.85;;;2.33;;
42834;SDS011;29335;50.526;30.458;2022-07-29T10:57:16;5.40;;;2.50;;
42834;SDS011;29335;50.526;30.458;2022-07-29T10:59:42;5.20;;;2.20;;
42834;SDS011;29335;50.526;30.458;2022-07-29T11:07:23;8.20;;;2.58;;
42834;SDS011;29335;50.526;30.458;2022-07-29T11:23:19;7.15;;;2.40;;
42834;SDS011;29335;50.526;30.458;2022-07-29T11:31:33;4.55;;;2.20;;
42834;SDS011;29335;50.526;30.458;2022-07-29T11:34:25;3.78;;;2.05;;
42834;SDS011;29335;50.526;30.458;2022-07-29T11:39:47;5.35;;;1.80;;
42834;SDS011;29335;50.526;30.458;2022-07-29T11:47:22;4.72;;;1.92;;
42834;SDS011;29335;50.526;30.458;2022-07-29T11:49:48;7.55;;;2.05;;
42834;SDS011;29335;50.526;30.458;2022-07-29T11:52:18;5.05;;;2.00;;
42834;SDS011;29335;50.526;30.458;2022-07-29T11:54:45;4.45;;;2.08;;
42834;SDS011;29335;50.526;30.458;2022-07-29T11:57:14;5.07;;;2.33;;
42834;SDS011;29335;50.526;30.458;2022-07-29T11:59:42;3.90;;;2.10;;
42834;SDS011;29335;50.526;30.458;2022-07-29T12:02:10;4.15;;;2.25;;
42834;SDS011;29335;50.526;30.458;2022-07-29T12:04:49;4.78;;;2.05;;
42834;SDS011;29335;50.526;30.458;2022-07-29T12:07:16;5.13;;;2.22;;
42834;SDS011;29335;50.526;30.458;2022-07-29T12:09:51;6.78;;;2.30;;
42834;SDS011;29335;50.526;30.458;2022-07-29T12:12:18;3.08;;;1.90;;
42834;SDS011;29335;50.526;30.458;2022-07-29T12:14:44;3.15;;;2.10;;
42834;SDS011;29335;50.526;30.458;2022-07-29T12:17:25;6.20;;;2.22;;
42834;SDS011;29335;50.526;30.458;2022-07-29T12:19:55;5.68;;;2.20;;
42834;SDS011;29335;50.526;30.458;2022-07-29T12:22:29;4.32;;;2.00;;
42834;SDS011;29335;50.526;30.458;2022-07-29T12:25:00;5.35;;;2.22;;
42834;SDS011;29335;50.526;30.458;2022-07-29T12:27:27;5.80;;;2.25;;
42834;SDS011;29335;50.526;30.458;2022-07-29T12:29:57;2.42;;;1.88;;
42834;SDS011;29335;50.526;30.458;2022-07-29T12:32:30;4.00;;;2.50;;
42834;SDS011;29335;50.526;30.458;2022-07-29T12:34:57;3.90;;;2.13;;
42834;SDS011;29335;50.526;30.458;2022-07-29T12:37:23;5.47;;;2.80;;
42834;SDS011;29335;50.526;30.458;2022-07-29T12:39:49;5.10;;;2.38;;
42834;SDS011;29335;50.526;30.458;2022-07-29T12:42:15;5.72;;;2.13;;
42834;SDS011;29335;50.526;30.458;2022-07-29T12:44:45;4.40;;;2.58;;
42834;SDS011;29335;50.526;30.458;2022-07-29T12:47:14;3.95;;;2.13;;
42834;SDS011;29335;50.526;30.458;2022-07-29T12:49:41;4.70;;;2.58;;
42834;SDS011;29335;50.526;30.458;2022-07-29T12:54:56;4.70;;;2.40;;
42834;SDS011;29335;50.526;30.458;2022-07-29T12:57:22;6.10;;;2.47;;
42834;SDS011;29335;50.526;30.458;2022-07-29T13:00:04;4.68;;;2.60;;
42834;SDS011;29335;50.526;30.458;2022-07-29T13:02:33;6.03;;;2.30;;
42834;SDS011;29335;50.526;30.458;2022-07-29T13:05:00;6.50;;;2.72;;
42834;SDS011;29335;50.526;30.458;2022-07-29T13:07:27;5.72;;;2.25;;
42834;SDS011;29335;50.526;30.458;2022-07-29T13:09:54;3.83;;;2.25;;
42834;SDS011;29335;50.526;30.458;2022-07-29T13:13:00;6.65;;;2.25;;
42834;SDS011;29335;50.526;30.458;2022-07-29T13:15:28;4.47;;;2.42;;
42834;SDS011;29335;50.526;30.458;2022-07-29T13:17:54;5.97;;;2.50;;
42834;SDS011;29335;50.526;30.458;2022-07-29T13:20:22;4.57;;;2.63;;
42834;SDS011;29335;50.526;30.458;2022-07-29T13:22:49;5.47;;;2.22;;
42834;SDS011;29335;50.526;30.458;2022-07-29T13:25:23;3.08;;;2.20;;
42834;SDS011;29335;50.526;30.458;2022-07-29T13:27:56;4.50;;;2.50;;
42834;SDS011;29335;50.526;30.458;2022-07-29T13:30:23;5.20;;;2.40;;
42834;SDS011;29335;50.526;30.458;2022-07-29T13:32:49;4.95;;;2.30;;
42834;SDS011;29335;50.526;30.458;2022-07-29T13:35:16;5.00;;;2.47;;
42834;SDS011;29335;50.526;30.458;2022-07-29T13:37:42;4.05;;;2.40;;
42834;SDS011;29335;50.526;30.458;2022-07-29T13:40:08;7.35;;;2.63;;
42834;SDS011;29335;50.526;30.458;2022-07-29T13:42:35;4.93;;;2.40;;
42834;SDS011;29335;50.526;30.458;2022-07-29T13:45:01;4.35;;;2.20;;
42834;SDS011;29335;50.526;30.458;2022-07-29T13:47:27;6.03;;;2.65;;
42834;SDS011;29335;50.526;30.458;2022-07-29T13:49:55;6.82;;;2.47;;
42834;SDS011;29335;50.526;30.458;2022-07-29T13:52:21;6.57;;;2.25;;
42834;SDS011;29335;50.526;30.458;2022-07-29T13:54:47;7.00;;;2.65;;
42834;SDS011;29335;50.526;30.458;2022-07-29T13:57:13;6.38;;;2.47;;
42834;SDS011;29335;50.526;30.458;2022-07-29T13:59:40;5.32;;;2.10;;
42834;SDS011;29335;50.526;30.458;2022-07-29T14:02:07;3.80;;;2.35;;
42834;SDS011;29335;50.526;30.458;2022-07-29T14:04:32;5.80;;;2.53;;
42834;SDS011;29335;50.526;30.458;2022-07-29T14:06:58;10.52;;;2.50;;
42834;SDS011;29335;50.526;30.458;2022-07-29T14:09:24;3.00;;;2.10;;
42834;SDS011;29335;50.526;30.458;2022-07-29T14:11:49;5.57;;;2.50;;
42834;SDS011;29335;50.526;30.458;2022-07-29T14:14:16;5.45;;;2.50;;
42834;SDS011;29335;50.526;30.458;2022-07-29T14:16:42;5.30;;;2.40;;
42834;SDS011;29335;50.526;30.458;2022-07-29T14:19:07;3.80;;;2.40;;
42834;SDS011;29335;50.526;30.458;2022-07-29T14:21:33;7.55;;;2.38;;
42834;SDS011;29335;50.526;30.458;2022-07-29T14:23:59;4.95;;;2.40;;
42834;SDS011;29335;50.526;30.458;2022-07-29T14:26:25;5.60;;;2.50;;
42834;SDS011;29335;50.526;30.458;2022-07-29T14:28:50;5.00;;;2.70;;
42834;SDS011;29335;50.526;30.458;2022-07-29T14:31:18;4.40;;;2.50;;
42834;SDS011;29335;50.526;30.458;2022-07-29T14:33:43;4.35;;;2.45;;
42834;SDS011;29335;50.526;30.458;2022-07-29T14:36:09;4.00;;;2.38;;
42834;SDS011;29335;50.526;30.458;2022-07-29T14:38:35;4.22;;;2.38;;
42834;SDS011;29335;50.526;30.458;2022-07-29T14:41:02;7.32;;;5.07;;
42834;SDS011;29335;50.526;30.458;2022-07-29T14:43:28;6.00;;;2.38;;
42834;SDS011;29335;50.526;30.458;2022-07-29T14:45:53;4.63;;;2.75;;
42834;SDS011;29335;50.526;30.458;2022-07-29T14:48:19;3.80;;;2.65;;
42834;SDS011;29335;50.526;30.458;2022-07-29T14:50:45;4.50;;;2.13;;
42834;SDS011;29335;50.526;30.458;2022-07-29T14:53:10;4.85;;;2.40;;
42834;SDS011;29335;50.526;30.458;2022-07-29T14:55:38;3.42;;;2.40;;
42834;SDS011;29335;50.526;30.458;2022-07-29T14:58:04;4.88;;;2.60;;
42834;SDS011;29335;50.526;30.458;2022-07-29T15:00:30;3.67;;;2.63;;
42834;SDS011;29335;50.526;30.458;2022-07-29T15:02:57;3.67;;;2.50;;
42834;SDS011;29335;50.526;30.458;2022-07-29T15:05:24;6.38;;;2.42;;
42834;SDS011;29335;50.526;30.458;2022-07-29T15:07:50;3.60;;;2.55;;
42834;SDS011;29335;50.526;30.458;2022-07-29T15:10:16;5.10;;;2.42;;
42834;SDS011;29335;50.526;30.458;2022-07-29T15:12:41;5.15;;;2.30;;
42834;SDS011;29335;50.526;30.458;2022-07-29T15:15:07;6.95;;;2.15;;
42834;SDS011;29335;50.526;30.458;2022-07-29T15:17:33;5.95;;;2.83;;
42834;SDS011;29335;50.526;30.458;2022-07-29T15:19:59;4.70;;;2.25;;
42834;SDS011;29335;50.526;30.458;2022-07-29T15:22:25;7.60;;;2.63;;
42834;SDS011;29335;50.526;30.458;2022-07-29T15:24:50;6.28;;;2.35;;
42834;SDS011;29335;50.526;30.458;2022-07-29T15:27:16;5.15;;;2.63;;
42834;SDS011;29335;50.526;30.458;2022-07-29T15:29:42;6.68;;;2.58;;
42834;SDS011;29335;50.526;30.458;2022-07-29T15:32:08;4.32;;;2.17;;
42834;SDS011;29335;50.526;30.458;2022-07-29T15:34:34;4.25;;;2.20;;
42834;SDS011;29335;50.526;30.458;2022-07-29T15:37:00;6.60;;;2.40;;
42834;SDS011;29335;50.526;30.458;2022-07-29T15:39:26;5.22;;;2.50;;
42834;SDS011;29335;50.526;30.458;2022-07-29T15:41:52;3.63;;;2.42;;
42834;SDS011;29335;50.526;30.458;2022-07-29T15:44:18;5.25;;;2.63;;
42834;SDS011;29335;50.526;30.458;2022-07-29T15:46:44;4.47;;;2.40;;
42834;SDS011;29335;50.526;30.458;2022-07-29T15:49:28;5.03;;;2.40;;
42834;SDS011;29335;50.526;30.458;2022-07-29T15:52:00;4.15;;;2.28;;
42834;SDS011;29335;50.526;30.458;2022-07-29T15:54:28;7.38;;;3.10;;
42834;SDS011;29335;50.526;30.458;2022-07-29T15:56:54;5.05;;;2.50;;
42834;SDS011;29335;50.526;30.458;2022-07-29T15:59:20;4.53;;;2.72;;